Time;durP1;ratioP1;P1;durP2;ratioP2;P2;SDS_P1;SDS_P2;PMS_P1;PMS_P2;Temp;Humidity;BMP_temperature;BMP_pressure;BME280_temperature;BME280_humidity;BME280_pressure;Samples;Min_cycle;Max_cycle;Signal;HPM_P1;HPM_P2
2023/01/26 00:00:51;;;;;;;30.13;20.67;;;3.50;1.00;;;;;;5113323;28;20521;-38
2023/01/26 00:03:18;;;;;;;30.77;19.30;;;3.50;1.00;;;;;;5114170;28;20477;-39
2023/01/26 00:05:44;;;;;;;29.97;20.83;;;3.40;1.00;;;;;;5113162;28;20932;-36
2023/01/26 00:08:10;;;;;;;27.03;18.77;;;3.40;1.00;;;;;;5112904;28;20485;-36
2023/01/26 00:10:36;;;;;;;29.43;20.40;;;3.40;1.00;;;;;;5112644;28;20409;-38
2023/01/26 00:13:02;;;;;;;29.97;20.93;;;3.40;1.00;;;;;;5114452;28;20410;-37
2023/01/26 00:15:32;;;;;;;33.50;21.20;;;3.40;1.00;;;;;;5119531;28;20520;-37
2023/01/26 00:17:59;;;;;;;32.20;20.17;;;3.30;1.00;;;;;;5121304;28;20463;-36
2023/01/26 00:20:25;;;;;;;26.33;18.63;;;3.30;1.00;;;;;;5120894;28;20443;-35
2023/01/26 00:22:51;;;;;;;29.53;18.73;;;3.30;1.00;;;;;;5119930;28;20847;-37
2023/01/26 00:25:17;;;;;;;29.77;20.40;;;3.30;1.00;;;;;;5119795;28;20512;-39
2023/01/26 00:27:42;;;;;;;26.93;17.87;;;3.30;1.00;;;;;;5119660;28;20573;-38
2023/01/26 00:30:08;;;;;;;25.90;17.87;;;3.30;1.00;;;;;;5121821;28;20241;-38
2023/01/26 00:32:35;;;;;;;23.73;16.47;;;3.30;1.00;;;;;;5121116;28;20222;-38
2023/01/26 00:35:03;;;;;;;26.30;18.10;;;3.30;1.00;;;;;;5122913;28;20422;-38
2023/01/26 00:37:28;;;;;;;24.80;17.30;;;3.30;1.00;;;;;;5123742;28;20512;-38
2023/01/26 00:39:54;;;;;;;25.70;17.60;;;3.30;1.00;;;;;;5119633;28;20577;-38
2023/01/26 00:42:20;;;;;;;23.10;15.73;;;3.30;1.00;;;;;;5120632;28;20553;-36
2023/01/26 00:44:46;;;;;;;23.53;17.60;;;3.30;1.00;;;;;;5119931;28;20191;-36
2023/01/26 00:47:12;;;;;;;26.57;17.00;;;3.30;5.00;;;;;;5119910;28;20421;-36
2023/01/26 00:49:38;;;;;;;25.30;18.00;;;3.30;1.00;;;;;;5119703;28;20259;-36
2023/01/26 00:52:04;;;;;;;25.07;17.40;;;3.30;1.00;;;;;;5120335;28;21018;-36
2023/01/26 00:54:30;;;;;;;16.07;10.33;;;3.30;1.00;;;;;;5121207;28;20206;-36
2023/01/26 00:56:55;;;;;;;16.60;9.40;;;3.70;1.00;;;;;;5121091;28;20413;-36
2023/01/26 00:59:21;;;;;;;19.67;13.53;;;4.60;1.00;;;;;;5122304;28;20179;-38
2023/01/26 01:01:47;;;;;;;20.87;14.33;;;4.80;1.00;;;;;;5121056;28;20175;-38
2023/01/26 01:04:13;;;;;;;24.20;17.20;;;4.80;99.90;;;;;;5121164;28;20186;-38
2023/01/26 01:06:39;;;;;;;24.30;16.33;;;4.70;99.90;;;;;;5121115;28;20417;-36
2023/01/26 01:09:05;;;;;;;21.67;15.37;;;4.50;1.00;;;;;;5119173;28;20494;-36
2023/01/26 01:11:30;;;;;;;23.67;16.17;;;4.30;99.90;;;;;;5119779;28;20203;-36
2023/01/26 01:13:56;;;;;;;23.60;16.60;;;4.20;1.00;;;;;;5118219;28;20175;-36
2023/01/26 01:16:22;;;;;;;24.00;16.83;;;4.10;99.90;;;;;;5119638;28;20167;-38
2023/01/26 01:18:53;;;;;;;24.53;16.70;;;4.00;1.00;;;;;;5118688;28;20433;-38
2023/01/26 01:21:19;;;;;;;21.13;14.90;;;3.90;99.90;;;;;;5119764;28;20420;-37
2023/01/26 01:23:44;;;;;;;24.00;17.07;;;3.90;99.90;;;;;;5118431;28;20474;-36
2023/01/26 01:26:10;;;;;;;26.97;17.70;;;3.80;1.00;;;;;;5117481;28;20286;-38
2023/01/26 01:28:36;;;;;;;29.80;18.33;;;3.70;1.00;;;;;;5118265;27;20186;-38
2023/01/26 01:31:06;;;;;;;25.23;17.00;;;3.60;1.00;;;;;;5118698;28;20468;-38
2023/01/26 01:33:31;;;;;;;22.90;16.80;;;3.60;1.00;;;;;;5117914;28;20516;-37
2023/01/26 01:36:06;;;;;;;26.30;18.00;;;3.60;1.00;;;;;;5118875;28;20500;-38
2023/01/26 01:38:32;;;;;;;29.50;17.90;;;3.60;1.00;;;;;;5117430;28;20199;-37
2023/01/26 01:40:58;;;;;;;28.10;19.20;;;3.60;1.00;;;;;;5117644;28;20499;-36
2023/01/26 01:43:24;;;;;;;30.00;19.23;;;3.50;1.00;;;;;;5117769;28;20433;-38
2023/01/26 01:45:51;;;;;;;27.83;18.10;;;3.50;1.00;;;;;;5118477;28;20433;-37
2023/01/26 01:48:28;;;;;;;26.53;18.97;;;3.50;99.90;;;;;;5119109;28;20413;-36
2023/01/26 01:50:59;;;;;;;30.53;18.77;;;3.50;99.90;;;;;;5119934;28;20623;-36
2023/01/26 01:53:33;;;;;;;27.57;18.47;;;3.50;99.90;;;;;;5101110;28;20482;-37
2023/01/26 01:56:02;;;;;;;25.60;17.77;;;3.40;99.90;;;;;;5119068;28;20416;-36
2023/01/26 01:58:29;;;;;;;27.27;17.93;;;3.40;99.90;;;;;;5118204;28;20430;-37
2023/01/26 02:00:55;;;;;;;28.13;18.70;;;3.40;99.90;;;;;;5118207;28;20834;-36
2023/01/26 02:03:21;;;;;;;27.37;18.80;;;3.40;99.90;;;;;;5118716;28;20437;-37
2023/01/26 02:06:00;;;;;;;24.20;16.80;;;3.40;99.90;;;;;;5117937;28;20409;-36
2023/01/26 02:08:47;;;;;;;26.50;15.90;;;3.40;99.90;;;;;;5118499;28;20444;-36
2023/01/26 02:11:35;;;;;;;23.80;17.50;;;3.40;9.50;;;;;;5119311;28;20735;-36
2023/01/26 02:14:07;;;;;;;24.50;15.70;;;3.40;1.00;;;;;;5118654;28;20687;-37
2023/01/26 02:16:33;;;;;;;25.47;17.13;;;3.30;1.00;;;;;;5101882;28;20429;-36
2023/01/26 02:18:59;;;;;;;26.23;17.77;;;3.30;1.00;;;;;;5119710;28;20414;-36
2023/01/26 02:21:24;;;;;;;24.37;16.53;;;3.30;1.00;;;;;;5119351;28;20517;-37
2023/01/26 02:24:02;;;;;;;23.47;15.90;;;3.30;1.00;;;;;;5118253;28;20238;-36
2023/01/26 02:26:31;;;;;;;25.27;16.00;;;3.30;1.00;;;;;;5119543;28;20175;-36
2023/01/26 02:28:58;;;;;;;23.97;15.67;;;3.30;1.00;;;;;;5119286;28;20457;-38
2023/01/26 02:31:24;;;;;;;25.17;15.50;;;3.30;1.00;;;;;;5118609;28;20948;-38
2023/01/26 02:33:50;;;;;;;21.93;16.47;;;3.30;1.00;;;;;;5118372;28;20510;-37
2023/01/26 02:36:22;;;;;;;24.40;16.93;;;3.30;1.00;;;;;;5115394;28;20458;-37
2023/01/26 02:38:54;;;;;;;25.23;17.00;;;3.20;1.00;;;;;;5108900;28;20457;-37
2023/01/26 02:44:08;;;;;;;22.80;15.50;;;3.20;1.00;;;;;;5104693;28;20437;-37
2023/01/26 02:46:33;;;;;;;21.23;15.90;;;3.20;1.00;;;;;;5114088;28;20520;-37
2023/01/26 02:51:43;;;;;;;23.90;15.67;;;3.20;1.00;;;;;;5109933;28;20272;-37
2023/01/26 02:55:21;;;;;;;25.20;17.03;;;3.30;1.00;;;;;;5099147;28;20430;-36
2023/01/26 02:56:54;;;;;;;25.17;16.03;;;3.20;1.00;;;;;;5099421;28;20450;-37
2023/01/26 02:59:20;;;;;;;25.40;17.07;;;3.30;1.00;;;;;;5112994;28;20438;-38
2023/01/26 03:01:48;;;;;;;24.30;15.80;;;3.20;1.00;;;;;;5116514;28;20186;-36
2023/01/26 03:04:14;;;;;;;22.97;16.67;;;3.30;1.00;;;;;;5117328;28;20190;-37
2023/01/26 03:06:40;;;;;;;22.97;15.87;;;3.20;1.00;;;;;;5117624;28;20413;-37
2023/01/26 03:09:05;;;;;;;22.83;15.67;;;3.30;1.00;;;;;;5117146;28;20222;-38
2023/01/26 03:11:40;;;;;;;24.33;15.57;;;3.20;1.00;;;;;;5116936;28;20284;-37
2023/01/26 03:14:07;;;;;;;19.50;14.80;;;3.20;1.00;;;;;;5118363;28;20171;-38
2023/01/26 03:16:33;;;;;;;23.87;15.77;;;3.20;1.00;;;;;;5117964;28;20661;-37
2023/01/26 03:27:26;;;;;;;22.97;14.57;;;3.20;1.00;;;;;;5110312;28;20782;-37
2023/01/26 03:29:53;;;;;;;25.07;16.70;;;3.30;1.00;;;;;;5097987;28;20433;-36
2023/01/26 03:32:18;;;;;;;23.43;16.20;;;3.20;1.00;;;;;;5110636;28;20549;-37
2023/01/26 03:34:44;;;;;;;27.20;17.70;;;3.20;1.00;;;;;;5107580;28;20469;-37
2023/01/26 03:37:10;;;;;;;26.90;17.50;;;3.20;1.00;;;;;;5119042;28;20252;-37
2023/01/26 03:56:13;;;;;;;26.70;15.53;;;3.00;1.00;;;;;;5121152;28;20397;-37
2023/01/26 03:58:39;;;;;;;25.10;16.83;;;3.00;1.00;;;;;;5120848;28;20406;-37
2023/01/26 04:01:05;;;;;;;23.70;15.50;;;3.00;1.00;;;;;;5114111;28;20455;-39
2023/01/26 04:08:59;;;;;;;23.30;14.33;;;3.00;55.60;;;;;;5099716;28;20475;-38
2023/01/26 04:11:25;;;;;;;23.80;14.97;;;2.90;49.10;;;;;;5099249;28;20474;-38
2023/01/26 04:22:02;;;;;;;22.53;14.63;;;3.00;99.90;;;;;;5100894;28;20731;-39
2023/01/26 04:24:28;;;;;;;24.87;14.80;;;3.00;99.90;;;;;;5100745;28;20477;-37
2023/01/26 04:26:53;;;;;;;24.70;13.90;;;3.00;99.90;;;;;;5118323;28;20288;-37
2023/01/26 04:29:19;;;;;;;26.03;17.20;;;3.00;99.90;;;;;;5111909;28;20180;-38
2023/01/26 04:31:45;;;;;;;19.07;14.37;;;3.00;99.90;;;;;;5117515;28;20497;-38
2023/01/26 04:34:12;;;;;;;20.80;14.50;;;3.00;99.90;;;;;;5117677;28;20180;-38
2023/01/26 04:36:38;;;;;;;19.17;13.90;;;3.00;99.90;;;;;;5117811;28;20267;-38
2023/01/26 04:39:04;;;;;;;21.30;14.30;;;3.00;99.90;;;;;;5108427;28;20951;-38
2023/01/26 04:41:31;;;;;;;20.97;13.63;;;3.00;99.90;;;;;;5102422;28;20432;-38
2023/01/26 04:43:57;;;;;;;19.50;12.47;;;3.00;98.30;;;;;;5098564;28;20177;-37
2023/01/26 04:46:23;;;;;;;18.70;13.23;;;2.90;99.90;;;;;;5098762;28;20482;-37
2023/01/26 04:48:49;;;;;;;19.57;13.77;;;2.90;99.90;;;;;;5107723;28;20480;-38
2023/01/26 04:51:19;;;;;;;21.03;16.43;;;2.90;99.90;;;;;;5118778;28;20496;-38
2023/01/26 04:53:46;;;;;;;24.30;21.50;;;2.90;96.10;;;;;;5118205;28;20176;-37
2023/01/26 04:56:26;;;;;;;28.53;25.53;;;2.90;81.50;;;;;;5118469;28;20511;-37
2023/01/26 04:58:53;;;;;;;21.97;19.57;;;2.90;26.90;;;;;;5105568;27;20444;-37
2023/01/26 05:01:19;;;;;;;18.77;16.80;;;2.90;1.00;;;;;;5108854;28;20439;-38
2023/01/26 05:03:44;;;;;;;18.27;14.57;;;2.90;1.00;;;;;;5118726;28;20430;-37
2023/01/26 05:06:10;;;;;;;17.70;13.17;;;2.90;1.00;;;;;;5117733;28;20731;-37
2023/01/26 05:08:37;;;;;;;17.77;12.97;;;2.80;1.00;;;;;;5117631;28;20179;-37
2023/01/26 05:11:02;;;;;;;18.93;11.90;;;2.80;1.00;;;;;;5118069;28;20216;-38
2023/01/26 05:13:28;;;;;;;18.27;11.67;;;2.80;1.00;;;;;;5118909;28;20440;-37
2023/01/26 05:15:54;;;;;;;19.83;11.60;;;2.80;1.00;;;;;;5120137;28;20255;-36
2023/01/26 05:18:19;;;;;;;15.17;10.50;;;2.70;1.00;;;;;;5119892;28;20442;-37
2023/01/26 05:20:45;;;;;;;16.30;10.70;;;2.70;1.00;;;;;;5116335;28;20180;-37
2023/01/26 05:23:11;;;;;;;15.93;10.57;;;2.70;1.00;;;;;;5097574;28;20217;-38
2023/01/26 05:25:37;;;;;;;13.10;9.40;;;2.70;1.00;;;;;;5102250;28;20582;-39
2023/01/26 05:28:03;;;;;;;16.40;10.97;;;2.70;1.00;;;;;;5098087;28;20479;-37
2023/01/26 05:30:28;;;;;;;14.50;9.93;;;2.70;1.00;;;;;;5101515;28;20569;-39
2023/01/26 05:33:09;;;;;;;13.87;9.17;;;2.70;1.00;;;;;;5111597;28;20469;-38
2023/01/26 05:35:35;;;;;;;14.40;10.20;;;2.70;1.00;;;;;;5097595;28;20554;-38
2023/01/26 05:38:01;;;;;;;15.83;10.70;;;2.70;1.00;;;;;;5092798;28;20503;-37
2023/01/26 05:40:27;;;;;;;15.83;10.37;;;2.70;1.00;;;;;;5094705;28;20430;-37
2023/01/26 05:42:53;;;;;;;17.30;10.67;;;2.70;1.00;;;;;;5091728;28;20246;-37
2023/01/26 05:45:20;;;;;;;16.67;11.03;;;2.70;1.00;;;;;;5091152;28;20313;-37
2023/01/26 05:47:47;;;;;;;16.13;11.07;;;2.70;1.00;;;;;;5096888;28;20536;-38
2023/01/26 05:50:13;;;;;;;15.70;10.70;;;2.70;1.00;;;;;;5108902;28;20444;-37
2023/01/26 05:52:39;;;;;;;16.57;10.20;;;2.70;1.00;;;;;;5113806;28;20556;-37
2023/01/26 05:55:05;;;;;;;14.00;9.80;;;2.70;1.00;;;;;;5113355;28;20532;-37
2023/01/26 05:57:31;;;;;;;16.70;9.83;;;2.70;1.00;;;;;;5112522;28;20565;-37
2023/01/26 05:59:57;;;;;;;12.80;9.43;;;2.70;1.00;;;;;;5109375;28;20422;-37
2023/01/26 06:02:22;;;;;;;13.70;9.70;;;2.70;1.00;;;;;;5110507;28;20713;-37
2023/01/26 06:04:48;;;;;;;19.30;12.37;;;2.70;1.00;;;;;;5111166;28;20426;-38
2023/01/26 06:07:15;;;;;;;17.37;10.27;;;2.70;1.00;;;;;;5113933;28;20253;-37
2023/01/26 06:09:41;;;;;;;15.10;9.83;;;2.70;1.00;;;;;;5113850;28;20425;-37
2023/01/26 06:12:15;;;;;;;14.93;11.47;;;2.70;1.00;;;;;;5111392;28;20623;-37
2023/01/26 06:14:41;;;;;;;14.60;12.80;;;2.70;1.00;;;;;;5110707;28;20490;-38
2023/01/26 06:17:06;;;;;;;14.37;11.23;;;2.70;99.90;;;;;;5110057;28;20417;-37
2023/01/26 06:19:32;;;;;;;16.13;11.37;;;2.60;99.90;;;;;;5110437;28;20186;-37
2023/01/26 06:21:58;;;;;;;13.10;9.43;;;2.70;99.90;;;;;;5109114;28;20188;-38
2023/01/26 06:24:24;;;;;;;14.00;11.20;;;2.60;99.90;;;;;;5106571;28;20223;-38
2023/01/26 06:26:49;;;;;;;14.00;10.80;;;2.60;99.90;;;;;;5110470;28;20588;-38
2023/01/26 06:29:16;;;;;;;13.20;9.70;;;2.60;99.90;;;;;;5111451;28;20519;-38
2023/01/26 06:31:41;;;;;;;13.17;9.57;;;2.60;99.90;;;;;;5108958;28;20539;-37
2023/01/26 06:34:07;;;;;;;15.03;9.93;;;2.60;99.90;;;;;;5109441;28;20442;-36
2023/01/26 06:36:35;;;;;;;14.43;9.60;;;2.60;99.90;;;;;;5103384;28;20196;-37
2023/01/26 06:39:02;;;;;;;13.60;9.80;;;2.60;99.90;;;;;;5091241;28;20526;-38
2023/01/26 06:41:31;;;;;;;15.50;10.97;;;2.60;99.90;;;;;;5088443;28;20445;-39
2023/01/26 06:43:57;;;;;;;17.47;11.80;;;2.60;99.90;;;;;;5091061;28;20463;-37
2023/01/26 06:46:23;;;;;;;18.20;11.87;;;2.60;99.90;;;;;;5091075;28;20818;-36
2023/01/26 06:48:49;;;;;;;18.87;13.87;;;2.60;99.90;;;;;;5093501;28;20233;-40
2023/01/26 06:51:14;;;;;;;19.43;13.50;;;2.60;99.90;;;;;;5092101;28;20417;-38
2023/01/26 06:53:42;;;;;;;16.90;12.33;;;2.60;1.00;;;;;;5093329;28;20616;-36
2023/01/26 06:56:08;;;;;;;20.30;12.53;;;2.60;1.00;;;;;;5091833;28;20191;-37
2023/01/26 06:58:34;;;;;;;18.77;13.10;;;2.60;1.00;;;;;;5092673;28;20517;-37
2023/01/26 07:01:00;;;;;;;17.43;11.90;;;2.60;1.00;;;;;;5091963;28;20181;-37
2023/01/26 07:03:25;;;;;;;15.37;10.30;;;2.60;1.00;;;;;;5092503;28;20599;-37
2023/01/26 07:05:51;;;;;;;17.40;10.90;;;2.50;1.00;;;;;;5095590;28;20428;-37
2023/01/26 07:08:16;;;;;;;13.87;10.63;;;2.50;1.00;;;;;;5094695;28;20427;-38
2023/01/26 07:10:42;;;;;;;14.80;10.93;;;2.50;1.00;;;;;;5094712;28;20176;-38
2023/01/26 07:13:08;;;;;;;18.77;12.37;;;2.50;1.00;;;;;;5093306;28;20172;-37
2023/01/26 07:15:33;;;;;;;20.37;13.30;;;2.50;1.00;;;;;;5093331;28;20271;-37
2023/01/26 07:17:59;;;;;;;15.97;10.77;;;2.50;1.00;;;;;;5092231;28;20259;-38
2023/01/26 07:20:26;;;;;;;18.73;12.63;;;2.50;1.00;;;;;;5092803;28;20231;-37
2023/01/26 07:22:52;;;;;;;21.27;13.23;;;2.50;1.00;;;;;;5094941;28;20470;-37
2023/01/26 07:25:18;;;;;;;17.90;13.10;;;2.50;99.90;;;;;;5099424;28;20433;-37
2023/01/26 07:27:44;;;;;;;17.27;11.67;;;2.50;99.90;;;;;;5098812;28;20191;-38
2023/01/26 07:30:13;;;;;;;15.23;11.50;;;2.60;99.90;;;;;;5099072;28;20426;-37
2023/01/26 07:32:38;;;;;;;16.37;11.70;;;2.60;99.90;;;;;;5099302;28;20480;-38
2023/01/26 07:35:05;;;;;;;15.23;11.00;;;2.60;99.90;;;;;;5099087;28;20410;-36
2023/01/26 07:37:30;;;;;;;17.60;12.47;;;2.60;99.90;;;;;;5099482;28;20222;-38
2023/01/26 07:39:56;;;;;;;14.97;10.60;;;2.60;99.90;;;;;;5097751;28;20493;-37
2023/01/26 07:42:22;;;;;;;18.93;12.17;;;2.60;99.90;;;;;;5097493;28;20447;-37
2023/01/26 07:44:47;;;;;;;16.87;11.00;;;2.60;99.90;;;;;;5097131;28;20186;-36
2023/01/26 07:47:13;;;;;;;13.13;9.97;;;2.70;99.90;;;;;;5099010;28;20181;-36
2023/01/26 07:49:39;;;;;;;16.47;11.13;;;2.60;99.90;;;;;;5097866;28;20441;-37
2023/01/26 07:52:05;;;;;;;16.13;10.80;;;2.60;99.90;;;;;;5098576;28;20524;-36
2023/01/26 07:54:31;;;;;;;15.37;10.47;;;2.60;92.20;;;;;;5097667;28;20426;-39
2023/01/26 07:56:56;;;;;;;16.53;12.27;;;2.70;45.60;;;;;;5095110;28;20731;-36
2023/01/26 07:59:23;;;;;;;13.90;9.10;;;2.70;6.80;;;;;;5095477;28;20182;-38
2023/01/26 08:01:49;;;;;;;15.47;10.67;;;2.70;1.00;;;;;;5096677;28;20176;-37
2023/01/26 08:04:15;;;;;;;15.53;10.50;;;2.70;1.00;;;;;;5096197;28;20485;-37
2023/01/26 08:06:41;;;;;;;15.97;11.00;;;2.70;1.00;;;;;;5097036;28;20423;-37
2023/01/26 08:09:06;;;;;;;12.33;9.70;;;2.70;1.00;;;;;;5097423;28;20406;-37
2023/01/26 08:11:32;;;;;;;13.30;9.27;;;2.70;1.00;;;;;;5098260;28;20276;-37
2023/01/26 08:13:58;;;;;;;13.67;11.00;;;2.70;1.00;;;;;;5096053;28;20191;-37
2023/01/26 08:16:23;;;;;;;14.43;10.50;;;2.70;1.00;;;;;;5105645;28;20612;-40
2023/01/26 08:18:49;;;;;;;12.83;10.37;;;2.80;1.00;;;;;;5106218;28;20183;-38
2023/01/26 08:21:16;;;;;;;10.47;6.83;;;2.80;1.00;;;;;;5108255;28;20461;-37
2023/01/26 08:23:42;;;;;;;9.10;4.57;;;3.60;1.00;;;;;;5104952;28;20227;-40
2023/01/26 08:26:10;;;;;;;15.47;8.20;;;5.40;1.00;;;;;;5104322;28;20609;-39
2023/01/26 08:28:36;;;;;;;17.77;8.40;;;6.80;1.00;;;;;;5100622;28;20241;-39
2023/01/26 08:31:04;;;;;;;12.73;8.13;;;7.90;1.00;;;;;;5102046;28;20497;-38
2023/01/26 08:33:30;;;;;;;13.13;8.83;;;8.70;1.00;;;;;;5103003;28;20430;-43
2023/01/26 08:36:07;;;;;;;14.40;10.13;;;8.70;1.00;;;;;;5102476;28;20509;-39
2023/01/26 08:38:33;;;;;;;11.13;8.90;;;8.30;1.00;;;;;;5100682;28;20418;-37
2023/01/26 08:41:00;;;;;;;9.17;6.00;;;7.70;1.00;;;;;;5096984;28;20827;-38
2023/01/26 08:43:26;;;;;;;8.80;6.20;;;7.80;1.00;;;;;;5097981;28;20449;-38
2023/01/26 08:45:51;;;;;;;12.63;8.80;;;8.10;1.00;;;;;;5097461;28;20929;-38
2023/01/26 08:48:17;;;;;;;11.17;9.30;;;8.10;99.90;;;;;;5097172;28;20811;-38
2023/01/26 08:50:43;;;;;;;15.70;11.63;;;7.70;1.00;;;;;;5096936;28;20184;-37
2023/01/26 08:53:09;;;;;;;11.80;10.20;;;7.20;99.90;;;;;;5078723;28;20522;-37
2023/01/26 08:55:35;;;;;;;12.77;10.37;;;6.70;99.90;;;;;;5079892;28;20477;-37
2023/01/26 08:58:00;;;;;;;13.30;10.77;;;6.30;1.00;;;;;;5099386;28;20427;-37
2023/01/26 09:00:26;;;;;;;14.83;9.97;;;5.90;99.90;;;;;;5097870;28;20407;-37
2023/01/26 09:03:03;;;;;;;14.73;10.50;;;5.50;1.00;;;;;;5079364;28;20641;-38
2023/01/26 09:05:31;;;;;;;14.63;10.43;;;5.20;1.00;;;;;;5097829;28;20475;-38
2023/01/26 09:07:57;;;;;;;15.57;10.77;;;5.00;1.00;;;;;;5097357;28;20422;-38
2023/01/26 09:10:23;;;;;;;15.63;10.80;;;4.80;1.00;;;;;;5098354;28;20430;-38
2023/01/26 09:12:48;;;;;;;13.40;10.17;;;4.60;1.00;;;;;;5099473;28;20207;-38
2023/01/26 09:15:16;;;;;;;12.77;9.70;;;4.50;1.00;;;;;;5079824;28;20249;-39
2023/01/26 09:17:42;;;;;;;13.60;9.70;;;4.40;1.00;;;;;;5116169;28;20274;-38
2023/01/26 09:20:09;;;;;;;11.90;9.20;;;4.30;1.00;;;;;;5118622;28;20452;-38
2023/01/26 09:22:35;;;;;;;12.60;9.27;;;4.20;1.00;;;;;;5117926;28;20617;-38
2023/01/26 09:25:01;;;;;;;15.17;10.50;;;4.20;1.00;;;;;;5098914;28;20458;-38
2023/01/26 09:27:27;;;;;;;18.60;11.73;;;4.10;1.00;;;;;;5117273;28;20180;-38
2023/01/26 09:29:52;;;;;;;16.30;11.83;;;4.00;1.00;;;;;;5118503;28;20195;-38
2023/01/26 09:32:18;;;;;;;14.67;11.63;;;4.00;1.00;;;;;;5116295;28;20585;-37
2023/01/26 09:34:44;;;;;;;13.40;10.73;;;3.90;1.00;;;;;;5117952;28;20696;-38
2023/01/26 09:37:10;;;;;;;13.57;11.10;;;3.90;1.00;;;;;;5118229;28;20405;-38
2023/01/26 09:39:35;;;;;;;17.63;13.40;;;3.90;1.00;;;;;;5116785;28;20253;-38
2023/01/26 09:42:13;;;;;;;18.80;13.33;;;3.80;1.00;;;;;;5100113;28;20248;-38
2023/01/26 09:44:45;;;;;;;20.00;13.30;;;3.80;1.00;;;;;;5117187;28;20553;-38
2023/01/26 09:47:20;;;;;;;17.00;12.30;;;3.80;99.90;;;;;;5116373;28;20421;-38
2023/01/26 09:49:55;;;;;;;16.20;12.07;;;3.70;99.90;;;;;;5114674;28;20432;-38
2023/01/26 09:52:33;;;;;;;20.83;15.63;;;3.70;99.90;;;;;;5115653;28;20480;-37
2023/01/26 09:55:03;;;;;;;18.40;13.90;;;3.70;99.90;;;;;;5116902;28;20802;-38
2023/01/26 09:57:37;;;;;;;16.87;13.40;;;3.60;99.90;;;;;;5115062;28;20426;-38
2023/01/26 10:00:19;;;;;;;15.90;12.50;;;3.60;99.90;;;;;;5116222;28;20460;-38
2023/01/26 10:03:10;;;;;;;17.57;11.80;;;3.60;99.90;;;;;;5116541;28;20429;-37
2023/01/26 10:05:59;;;;;;;15.03;11.10;;;3.60;99.90;;;;;;5117451;28;20983;-37
2023/01/26 10:08:26;;;;;;;14.97;10.40;;;3.50;99.90;;;;;;5117742;28;20710;-39
2023/01/26 10:10:55;;;;;;;15.15;12.65;;;3.50;99.90;;;;;;5116285;28;20801;-40
2023/01/26 10:13:22;;;;;;;15.47;11.60;;;3.50;99.90;;;;;;5116215;28;20199;-37
2023/01/26 10:15:59;;;;;;;13.70;11.50;;;3.50;91.40;;;;;;5115551;28;20579;-36
2023/01/26 10:18:47;;;;;;;16.93;11.50;;;3.50;28.90;;;;;;5114592;28;20459;-37
2023/01/26 10:21:13;;;;;;;13.80;10.70;;;3.50;1.00;;;;;;5116416;28;20425;-38
2023/01/26 10:23:46;;;;;;;13.57;9.70;;;3.50;1.00;;;;;;5115736;28;20874;-39
2023/01/26 10:26:15;;;;;;;14.00;10.20;;;3.50;1.00;;;;;;5114532;28;20484;-37
2023/01/26 10:28:43;;;;;;;13.63;9.77;;;3.50;1.00;;;;;;5114450;28;20490;-37
2023/01/26 10:31:15;;;;;;;15.57;9.47;;;3.50;1.00;;;;;;5116544;27;20468;-37
2023/01/26 10:33:50;;;;;;;11.80;8.80;;;3.50;1.00;;;;;;5116568;28;20540;-37
2023/01/26 10:36:17;;;;;;;15.73;9.67;;;3.50;1.00;;;;;;5097403;28;20453;-39
2023/01/26 10:38:44;;;;;;;9.87;8.07;;;3.40;1.00;;;;;;5098389;28;20433;-38
2023/01/26 10:41:13;;;;;;;13.33;9.13;;;3.40;1.00;;;;;;5096966;28;20436;-37
2023/01/26 10:43:58;;;;;;;13.47;9.40;;;3.40;1.00;;;;;;5114868;28;20435;-39
2023/01/26 10:46:36;;;;;;;15.60;10.20;;;3.40;1.00;;;;;;5096654;28;20428;-39
2023/01/26 10:49:08;;;;;;;13.47;9.60;;;3.40;1.00;;;;;;5096498;28;20450;-39
2023/01/26 10:51:37;;;;;;;13.87;10.07;;;3.40;99.90;;;;;;5114156;28;20552;-38
2023/01/26 10:54:25;;;;;;;12.50;9.47;;;3.40;99.90;;;;;;5114657;28;20441;-37
2023/01/26 10:56:57;;;;;;;11.50;9.00;;;3.40;99.90;;;;;;5113439;28;20416;-37
2023/01/26 10:59:38;;;;;;;15.63;11.37;;;3.40;99.90;;;;;;5114981;28;20512;-37
2023/01/26 11:02:16;;;;;;;14.10;9.40;;;3.30;99.90;;;;;;5112393;28;20418;-38
2023/01/26 11:05:06;;;;;;;13.53;9.83;;;3.30;99.90;;;;;;5111131;28;20858;-37
2023/01/26 11:07:38;;;;;;;13.17;8.87;;;3.30;99.90;;;;;;5114338;28;20421;-38
2023/01/26 11:10:30;;;;;;;13.27;9.73;;;3.30;99.90;;;;;;5112645;28;20514;-38
2023/01/26 11:13:18;;;;;;;11.30;8.97;;;3.30;99.90;;;;;;5111701;28;20465;-38
2023/01/26 11:16:13;;;;;;;11.97;8.27;;;3.30;99.90;;;;;;5094356;28;20935;-38
2023/01/26 11:18:57;;;;;;;13.10;9.00;;;3.40;99.90;;;;;;5095603;28;20881;-38
2023/01/26 11:21:34;;;;;;;13.20;9.00;;;3.40;90.30;;;;;;5114015;28;20696;-38
2023/01/26 11:24:25;;;;;;;11.90;9.00;;;3.40;52.10;;;;;;5112459;28;20483;-38
2023/01/26 11:27:26;;;;;;;11.03;7.73;;;3.40;45.50;;;;;;5115300;28;20461;-39
2023/01/26 11:30:09;;;;;;;13.17;8.77;;;3.40;36.50;;;;;;5098491;28;20688;-38
2023/01/26 11:32:53;;;;;;;11.83;8.60;;;3.40;66.40;;;;;;5096503;28;20763;-38
2023/01/26 11:35:29;;;;;;;12.87;9.53;;;3.40;55.50;;;;;;5115454;28;20438;-38
2023/01/26 11:38:13;;;;;;;15.07;9.57;;;3.40;71.90;;;;;;5097492;28;20420;-38
2023/01/26 11:41:01;;;;;;;12.90;8.40;;;3.40;55.80;;;;;;5113995;28;20447;-37
2023/01/26 11:44:02;;;;;;;14.00;9.10;;;3.40;93.20;;;;;;5116050;28;20453;-37
2023/01/26 11:46:48;;;;;;;13.87;9.20;;;3.40;99.90;;;;;;5097553;28;20465;-37
2023/01/26 11:49:38;;;;;;;12.67;9.70;;;3.40;99.90;;;;;;5115094;28;20680;-37
2023/01/26 11:52:45;;;;;;;14.67;9.67;;;3.40;99.90;;;;;;5114892;28;20457;-42
2023/01/26 11:55:17;;;;;;;14.93;9.17;;;3.40;99.90;;;;;;5114689;28;20412;-36
2023/01/26 11:58:05;;;;;;;14.60;10.00;;;3.40;99.90;;;;;;5115613;28;20444;-37
2023/01/26 12:00:40;;;;;;;12.33;9.37;;;3.40;99.90;;;;;;5113924;28;20554;-39
2023/01/26 12:03:30;;;;;;;14.80;10.00;;;3.30;99.90;;;;;;5097666;28;20421;-39
2023/01/26 12:06:06;;;;;;;13.30;9.77;;;3.30;99.90;;;;;;5113212;28;20508;-37
2023/01/26 12:09:10;;;;;;;12.53;9.30;;;3.30;99.90;;;;;;5096783;28;20535;-36
2023/01/26 12:11:41;;;;;;;12.57;9.53;;;3.20;99.90;;;;;;5099596;28;20464;-37
2023/01/26 12:14:16;;;;;;;14.90;10.20;;;3.10;99.90;;;;;;5100902;28;20430;-37
2023/01/26 12:16:42;;;;;;;15.13;10.00;;;3.10;99.90;;;;;;5116722;28;20431;-37
2023/01/26 12:19:24;;;;;;;16.27;10.30;;;3.10;1.00;;;;;;5116257;28;20437;-37
2023/01/26 12:21:53;;;;;;;14.23;9.80;;;3.10;1.00;;;;;;5116598;28;20416;-36
2023/01/26 12:24:41;;;;;;;15.50;10.80;;;3.10;1.00;;;;;;5115908;28;20461;-37
2023/01/26 12:27:27;;;;;;;4.93;3.57;;;3.20;1.00;;;;;;5116173;28;20570;-39
2023/01/26 12:30:22;;;;;;;10.93;5.60;;;5.30;1.00;;;;;;5099998;28;20723;-40
2023/01/26 12:32:47;;;;;;;11.67;6.20;;;6.60;1.00;;;;;;5098522;28;20460;-42
2023/01/26 12:35:14;;;;;;;11.13;6.83;;;7.90;1.00;;;;;;5118211;28;20424;-39
2023/01/26 12:38:04;;;;;;;10.73;7.73;;;8.70;1.00;;;;;;5115321;28;20224;-40
2023/01/26 12:40:54;;;;;;;13.77;9.70;;;9.00;1.00;;;;;;5113921;28;20421;-38
2023/01/26 12:43:33;;;;;;;11.80;9.00;;;8.70;1.00;;;;;;5112983;28;20706;-38
2023/01/26 12:45:59;;;;;;;13.27;9.80;;;8.20;1.00;;;;;;5113784;28;20414;-38
2023/01/26 12:48:39;;;;;;;14.80;11.20;;;7.70;1.00;;;;;;5113755;28;20428;-38
2023/01/26 12:51:18;;;;;;;18.00;11.90;;;7.20;99.90;;;;;;5097531;28;20855;-39
2023/01/26 12:54:11;;;;;;;17.30;11.80;;;6.70;99.90;;;;;;5099162;28;20427;-38
2023/01/26 12:56:44;;;;;;;15.80;10.97;;;6.20;99.90;;;;;;5114939;28;20449;-39
2023/01/26 12:59:26;;;;;;;14.53;10.80;;;5.80;1.00;;;;;;5096293;28;20464;-38
2023/01/26 13:01:52;;;;;;;17.10;12.00;;;5.50;99.90;;;;;;5113663;28;20546;-38
2023/01/26 13:04:18;;;;;;;18.30;12.30;;;5.20;99.90;;;;;;5116412;28;20707;-37
2023/01/26 13:06:43;;;;;;;19.20;12.53;;;5.00;99.90;;;;;;5116930;28;20179;-40
2023/01/26 13:09:22;;;;;;;18.53;11.07;;;4.80;99.90;;;;;;5098923;28;20749;-39
2023/01/26 13:11:58;;;;;;;14.90;11.23;;;4.70;99.90;;;;;;5099730;28;20301;-37
2023/01/26 13:14:32;;;;;;;17.63;10.90;;;4.50;99.90;;;;;;5100646;28;20456;-37
2023/01/26 13:17:18;;;;;;;16.17;11.30;;;4.40;99.90;;;;;;5098161;28;20528;-37
2023/01/26 13:19:44;;;;;;;18.80;12.20;;;4.20;99.90;;;;;;5073932;28;21006;-37
2023/01/26 13:22:36;;;;;;;17.97;12.20;;;4.10;99.90;;;;;;5113926;28;20430;-39
2023/01/26 13:25:15;;;;;;;18.33;13.23;;;4.10;99.90;;;;;;5096049;28;20192;-37
2023/01/26 13:27:47;;;;;;;20.30;12.30;;;4.10;99.90;;;;;;5097131;28;20414;-37
2023/01/26 13:30:22;;;;;;;18.00;12.57;;;4.00;99.90;;;;;;5113754;28;20426;-38
2023/01/26 13:32:48;;;;;;;16.67;13.00;;;4.00;99.90;;;;;;5114652;28;20461;-38
2023/01/26 13:35:16;;;;;;;19.87;12.40;;;4.00;99.90;;;;;;5114960;28;20864;-38
2023/01/26 13:37:51;;;;;;;24.20;15.13;;;4.00;99.90;;;;;;5113698;28;20495;-38
2023/01/26 13:40:17;;;;;;;22.73;16.33;;;3.90;99.90;;;;;;5113965;28;20441;-38
2023/01/26 13:43:10;;;;;;;20.93;15.30;;;3.90;99.90;;;;;;5114671;28;20522;-38
2023/01/26 13:45:42;;;;;;;21.03;15.10;;;3.80;99.90;;;;;;5117907;28;20176;-38